createdAt,value
2019-04-25T00:01:40.138Z,19.60
2019-04-25T00:04:44.635Z,19.73
2019-04-25T00:07:48.449Z,20.68
2019-04-25T00:10:52.008Z,20.82
2019-04-25T00:13:55.517Z,19.87
2019-04-25T00:16:58.497Z,20.45
2019-04-25T00:20:02.170Z,20.00
2019-04-25T00:23:15.182Z,19.42
2019-04-25T00:26:27.704Z,20.35
2019-04-25T00:29:31.879Z,18.20
2019-04-25T00:32:35.311Z,19.23
2019-04-25T00:35:38.823Z,19.10
2019-04-25T00:38:45.489Z,18.48
2019-04-25T00:41:47.599Z,19.35
2019-04-25T00:44:51.559Z,19.45
2019-04-25T00:47:56.819Z,18.82
2019-04-25T00:51:01.764Z,19.40
2019-04-25T00:54:05.568Z,19.45
2019-04-25T00:57:09.554Z,18.67
2019-04-25T01:00:32.703Z,19.87
2019-04-25T01:03:36.743Z,19.92
2019-04-25T01:06:41.662Z,20.45
2019-04-25T01:09:46.215Z,20.12
2019-04-25T01:12:52.337Z,19.50
2019-04-25T01:15:56.699Z,20.50
2019-04-25T01:19:00.205Z,20.70
2019-04-25T01:22:03.891Z,21.35
2019-04-25T01:25:08.720Z,20.95
2019-04-25T01:28:13.563Z,20.27
2019-04-25T01:31:19.913Z,21.17
2019-04-25T01:34:40.502Z,20.68
2019-04-25T01:37:51.113Z,20.43
2019-04-25T01:41:23.928Z,21.10
2019-04-25T01:44:31.392Z,21.12
2019-04-25T01:47:34.848Z,21.30
2019-04-25T01:50:38.412Z,20.77
2019-04-25T01:53:41.763Z,20.50
2019-04-25T01:56:45.008Z,21.07
2019-04-25T01:59:49.755Z,18.87
2019-04-25T02:02:54.885Z,19.92
2019-04-25T02:05:59.121Z,20.77
2019-04-25T02:09:05.273Z,20.75
2019-04-25T02:12:16.075Z,22.00
2019-04-25T02:15:23.465Z,22.77
2019-04-25T02:18:27.171Z,24.52
2019-04-25T02:21:30.635Z,24.92
2019-04-25T02:24:34.075Z,26.35
2019-04-25T02:27:37.579Z,27.52
2019-04-25T02:30:42.067Z,25.27
2019-04-25T02:33:45.613Z,26.35
2019-04-25T02:36:48.974Z,27.20
2019-04-25T02:39:55.508Z,28.52
2019-04-25T02:43:00.123Z,27.77
2019-04-25T02:46:25.107Z,27.98
2019-04-25T02:49:39.629Z,27.42
2019-04-25T02:52:50.633Z,29.50
2019-04-25T02:55:54.017Z,29.15
2019-04-25T02:58:58.327Z,29.77
2019-04-25T03:02:04.793Z,28.38
2019-04-25T03:05:09.794Z,27.93
2019-04-25T03:08:14.280Z,28.67
2019-04-25T03:11:17.915Z,26.62
2019-04-25T03:14:21.214Z,28.85
2019-04-25T03:17:24.917Z,31.07
2019-04-25T03:20:46.612Z,32.73
2019-04-25T03:23:51.074Z,31.48
2019-04-25T03:26:54.591Z,33.38
2019-04-25T03:29:57.937Z,31.90
2019-04-25T03:33:03.714Z,31.77
2019-04-25T03:36:07.837Z,30.55
2019-04-25T03:39:11.247Z,30.68
2019-04-25T03:42:14.713Z,32.67
2019-04-25T03:45:19.167Z,32.03
2019-04-25T03:48:25.109Z,31.10
2019-04-25T03:51:27.884Z,32.03
2019-04-25T03:54:31.314Z,33.70
2019-04-25T03:57:34.780Z,33.33
2019-04-25T04:00:38.296Z,32.58
2019-04-25T04:03:41.783Z,34.18
2019-04-25T04:06:45.292Z,32.45
2019-04-25T04:09:48.823Z,32.55
2019-04-25T04:12:52.307Z,33.18
2019-04-25T04:15:56.719Z,33.10
2019-04-25T04:19:00.415Z,32.35
2019-04-25T04:22:14.760Z,32.30
2019-04-25T04:25:18.375Z,32.55
2019-04-25T04:28:21.787Z,31.93
2019-04-25T04:31:25.293Z,33.25
2019-04-25T04:34:28.524Z,31.48
2019-04-25T04:37:33.269Z,31.30
2019-04-25T04:40:36.736Z,32.03
2019-04-25T04:43:40.017Z,31.30
2019-04-25T04:46:44.000Z,31.40
2019-04-25T04:49:47.320Z,34.05
2019-04-25T04:52:51.752Z,32.53
2019-04-25T04:55:55.251Z,34.23
2019-04-25T04:58:58.643Z,34.33
2019-04-25T05:02:18.844Z,34.60
2019-04-25T05:05:47.164Z,34.08
2019-04-25T05:08:54.844Z,33.95
2019-04-25T05:11:58.273Z,33.58
2019-04-25T05:15:01.772Z,35.48
2019-04-25T05:18:05.227Z,31.97
2019-04-25T05:21:09.688Z,33.92
2019-04-25T05:24:15.221Z,31.40
2019-04-25T05:27:33.725Z,32.67
2019-04-25T05:30:29.967Z,30.97
2019-04-25T05:33:33.865Z,32.03
2019-04-25T05:36:37.556Z,31.00
2019-04-25T05:39:41.114Z,24.63
2019-04-25T05:42:59.475Z,20.62
2019-04-25T05:46:03.376Z,15.23
2019-04-25T05:49:06.877Z,16.60
2019-04-25T05:52:10.318Z,15.10
2019-04-25T05:55:14.343Z,13.20
2019-04-25T05:58:19.027Z,11.40
2019-04-25T06:01:22.897Z,8.25
2019-04-25T06:04:27.771Z,9.00
2019-04-25T06:07:31.081Z,8.18
2019-04-25T06:10:53.947Z,8.23
2019-04-25T06:14:03.492Z,7.80
2019-04-25T06:17:11.032Z,5.97
2019-04-25T06:20:15.954Z,7.05
2019-04-25T06:23:37.295Z,6.33
2019-04-25T06:26:51.879Z,6.25
2019-04-25T06:30:01.278Z,5.47
2019-04-25T06:33:04.699Z,6.00
2019-04-25T06:36:08.240Z,5.45
2019-04-25T06:39:21.992Z,4.42
2019-04-25T06:42:25.772Z,3.90
2019-04-25T06:46:00.434Z,4.95
2019-04-25T06:49:15.285Z,4.03
2019-04-25T06:52:18.804Z,4.70
2019-04-25T06:55:25.979Z,4.37
2019-04-25T06:58:30.984Z,4.40
2019-04-25T07:01:36.769Z,4.37
2019-04-25T07:04:43.478Z,3.75
2019-04-25T07:07:49.734Z,3.17
2019-04-25T07:10:53.906Z,2.90
2019-04-25T07:13:58.539Z,2.08
2019-04-25T07:17:04.342Z,2.10
2019-04-25T07:20:11.072Z,1.70
2019-04-25T07:23:14.585Z,2.47
2019-04-25T07:26:36.870Z,1.67
2019-04-25T07:29:56.563Z,1.50
2019-04-25T07:33:14.332Z,1.55
2019-04-25T07:36:17.748Z,1.50
2019-04-25T07:39:29.529Z,1.52
2019-04-25T07:42:45.247Z,1.40
2019-04-25T07:45:54.874Z,1.15
2019-04-25T07:49:03.372Z,1.27
2019-04-25T07:52:11.324Z,1.42
2019-04-25T07:55:23.384Z,1.40
2019-04-25T07:58:49.638Z,1.27
2019-04-25T08:01:48.185Z,1.20
2019-04-25T08:04:55.819Z,1.27
2019-04-25T08:08:08.135Z,1.32
2019-04-25T08:11:11.823Z,1.22
2019-04-25T08:14:34.158Z,0.60
2019-04-25T08:18:13.930Z,0.72
2019-04-25T08:21:17.471Z,0.80
2019-04-25T08:24:21.063Z,1.00
2019-04-25T08:27:24.331Z,1.15
2019-04-25T08:30:27.835Z,1.00
2019-04-25T08:33:34.222Z,0.95
2019-04-25T08:36:38.567Z,1.52
2019-04-25T08:39:45.065Z,1.35
2019-04-25T08:42:48.527Z,1.15
2019-04-25T08:45:52.000Z,1.00
2019-04-25T08:49:11.266Z,1.10
2019-04-25T08:52:15.009Z,0.70
2019-04-25T08:55:37.062Z,0.60
2019-04-25T08:59:04.143Z,1.22
2019-04-25T09:02:28.537Z,0.70
2019-04-25T09:05:37.421Z,0.60
2019-04-25T09:08:41.452Z,0.65
2019-04-25T09:11:46.917Z,0.50
2019-04-25T09:14:50.458Z,0.68
2019-04-25T09:17:54.704Z,0.35
2019-04-25T09:20:58.540Z,0.40
2019-04-25T09:24:03.355Z,0.35
2019-04-25T09:27:07.067Z,0.47
2019-04-25T09:30:10.870Z,0.50
2019-04-25T09:33:14.404Z,0.30
2019-04-25T09:36:17.948Z,0.82
2019-04-25T09:39:37.466Z,0.37
2019-04-25T09:42:41.509Z,0.40
2019-04-25T09:45:57.812Z,0.47
2019-04-25T09:49:20.515Z,0.80
2019-04-25T09:52:24.439Z,0.40
2019-04-25T09:55:44.078Z,0.35
2019-04-25T09:58:56.952Z,0.40
2019-04-25T10:02:00.423Z,0.50
2019-04-25T10:05:04.423Z,0.30
2019-04-25T10:13:19.300Z,0.50
2019-04-25T10:26:23.315Z,0.50
2019-04-25T10:29:54.488Z,0.30
2019-04-25T10:30:53.122Z,0.80
2019-04-25T10:32:57.190Z,0.35
2019-04-25T10:36:01.211Z,0.40
2019-04-25T10:39:10.879Z,0.33
2019-04-25T10:42:13.641Z,0.40
2019-04-25T10:45:23.191Z,0.40
2019-04-25T10:48:24.025Z,0.30
2019-04-25T10:51:27.680Z,0.30
2019-04-25T10:54:34.962Z,0.40
2019-04-25T10:57:36.630Z,0.40
2019-04-25T11:00:42.218Z,0.30
2019-04-25T11:04:09.362Z,0.50
2019-04-25T11:07:13.683Z,0.20
2019-04-25T11:10:17.904Z,0.30
2019-04-25T11:13:21.516Z,0.50
2019-04-25T11:16:26.726Z,0.30
2019-04-25T11:19:30.271Z,0.33
2019-04-25T11:22:34.257Z,0.60
2019-04-25T11:25:37.579Z,0.30
2019-04-25T11:28:42.666Z,0.47
2019-04-25T11:31:48.839Z,0.30
2019-04-25T11:34:53.502Z,0.62
2019-04-25T11:38:00.316Z,0.30
2019-04-25T11:41:09.431Z,0.88
2019-04-25T11:44:13.875Z,0.40
2019-04-25T11:47:18.653Z,0.80
2019-04-25T11:50:22.400Z,0.40
2019-04-25T11:53:25.855Z,0.70
2019-04-25T11:56:29.381Z,0.40
2019-04-25T11:59:34.165Z,0.20
2019-04-25T12:02:39.738Z,0.30
2019-04-25T12:05:45.823Z,0.40
2019-04-25T12:08:49.089Z,0.40
2019-04-25T12:11:54.313Z,0.40
2019-04-25T12:14:58.199Z,0.30
2019-04-25T12:18:01.229Z,0.30
2019-04-25T12:21:04.613Z,0.57
2019-04-25T12:24:09.260Z,0.70
2019-04-25T12:27:12.812Z,0.40
2019-04-25T12:30:16.447Z,0.30
2019-04-25T12:33:21.612Z,0.40
2019-04-25T12:36:26.513Z,0.42
2019-04-25T12:39:30.035Z,0.30
2019-04-25T12:42:34.378Z,0.33
2019-04-25T12:46:03.424Z,0.70
2019-04-25T12:49:07.019Z,0.78
2019-04-25T12:52:11.907Z,0.62
2019-04-25T12:55:15.494Z,0.95
2019-04-25T12:58:18.855Z,0.62
2019-04-25T13:01:23.063Z,0.53
2019-04-25T13:04:27.503Z,0.53
2019-04-25T13:07:31.055Z,1.05
2019-04-25T13:10:34.960Z,0.50
2019-04-25T13:13:38.427Z,0.72
2019-04-25T13:16:41.831Z,0.65
2019-04-25T13:19:45.215Z,0.82
2019-04-25T13:22:48.622Z,0.40
2019-04-25T13:25:54.115Z,0.33
2019-04-25T13:29:21.179Z,0.62
2019-04-25T13:32:58.939Z,0.60
2019-04-25T13:36:08.508Z,0.65
2019-04-25T13:39:16.593Z,0.62
2019-04-25T13:42:20.115Z,0.65
2019-04-25T13:45:24.327Z,0.45
2019-04-25T13:48:28.017Z,0.40
2019-04-25T13:51:31.548Z,0.57
2019-04-25T13:54:35.098Z,0.50
2019-04-25T13:57:38.524Z,0.47
2019-04-25T14:00:44.098Z,0.75
2019-04-25T14:03:47.567Z,0.40
2019-04-25T14:06:51.082Z,0.50
2019-04-25T14:09:54.576Z,0.40
2019-04-25T14:12:58.096Z,0.50
2019-04-25T14:16:25.382Z,0.45
2019-04-25T14:19:44.330Z,0.40
2019-04-25T14:22:47.970Z,0.40
2019-04-25T14:25:51.304Z,0.40
2019-04-25T14:28:54.616Z,0.30
2019-04-25T14:31:58.112Z,0.72
2019-04-25T14:35:03.389Z,0.40
2019-04-25T14:38:07.566Z,0.20
2019-04-25T14:41:11.377Z,0.50
2019-04-25T14:44:14.788Z,0.40
2019-04-25T14:47:18.410Z,0.35
2019-04-25T14:50:21.887Z,0.60
2019-04-25T14:53:25.809Z,0.93
2019-04-25T14:56:37.968Z,0.30
2019-04-25T14:59:41.411Z,0.50
2019-04-25T15:02:45.012Z,0.47
2019-04-25T15:05:48.539Z,0.93
2019-04-25T15:08:52.125Z,0.47
2019-04-25T15:11:55.556Z,0.60
2019-04-25T15:14:59.036Z,0.40
2019-04-25T15:18:04.053Z,0.30
2019-04-25T15:21:07.494Z,0.45
2019-04-25T15:24:11.076Z,0.30
2019-04-25T15:27:14.597Z,0.30
2019-04-25T15:30:28.313Z,0.40
2019-04-25T15:33:30.615Z,0.53
2019-04-25T15:36:50.474Z,0.30
2019-04-25T15:39:58.506Z,0.40
2019-04-25T15:43:26.191Z,0.42
2019-04-25T15:46:32.348Z,0.40
2019-04-25T15:49:36.837Z,0.42
2019-04-25T15:52:41.499Z,0.33
2019-04-25T15:55:45.586Z,0.40
2019-04-25T15:58:49.222Z,0.72
2019-04-25T16:01:53.028Z,0.30
2019-04-25T16:04:56.604Z,0.50
2019-04-25T16:08:00.035Z,0.30
2019-04-25T16:11:04.629Z,0.25
2019-04-25T16:14:08.172Z,0.88
2019-04-25T16:17:12.455Z,0.30
2019-04-25T16:20:16.064Z,0.35
2019-04-25T16:23:19.591Z,0.30
2019-04-25T16:26:23.532Z,0.80
2019-04-25T16:29:27.732Z,1.20
2019-04-25T16:32:31.299Z,0.40
2019-04-25T16:35:35.462Z,0.30
2019-04-25T16:38:39.155Z,0.60
2019-04-25T16:41:42.666Z,0.60
2019-04-25T16:44:46.230Z,0.60
2019-04-25T16:47:49.766Z,0.45
2019-04-25T16:50:53.252Z,0.50
2019-04-25T16:53:56.623Z,0.40
2019-04-25T16:57:00.136Z,0.30
2019-04-25T17:00:04.477Z,0.33
2019-04-25T17:03:09.834Z,0.37
2019-04-25T17:06:13.563Z,0.33
2019-04-25T17:09:17.162Z,0.40
2019-04-25T17:12:20.317Z,0.72
2019-04-25T17:15:32.056Z,0.57
2019-04-25T17:18:42.284Z,0.50
2019-04-25T17:21:46.091Z,0.50
2019-04-25T17:24:49.487Z,0.35
2019-04-25T17:27:52.874Z,0.40
2019-04-25T17:31:05.145Z,1.67
2019-04-25T17:34:16.691Z,0.37
2019-04-25T17:37:28.087Z,0.40
2019-04-25T17:40:33.774Z,0.30
2019-04-25T17:43:37.320Z,0.40
2019-04-25T17:46:41.858Z,0.60
2019-04-25T17:49:45.352Z,0.70
2019-04-25T17:52:48.644Z,0.62
2019-04-25T17:55:52.040Z,0.90
2019-04-25T17:58:55.445Z,1.75
2019-04-25T18:01:58.968Z,0.60
2019-04-25T18:05:02.447Z,0.60
2019-04-25T18:08:05.830Z,0.57
2019-04-25T18:11:09.587Z,0.50
2019-04-25T18:14:13.107Z,0.50
2019-04-25T18:17:16.019Z,0.50
2019-04-25T18:20:22.087Z,0.80
2019-04-25T18:23:47.845Z,0.60
2019-04-25T18:27:11.575Z,1.10
2019-04-25T18:30:15.047Z,0.75
2019-04-25T18:33:37.306Z,0.80
2019-04-25T18:36:47.207Z,0.60
2019-04-25T18:39:57.062Z,0.60
2019-04-25T18:43:25.707Z,0.82
2019-04-25T18:46:32.523Z,0.68
2019-04-25T18:49:36.367Z,0.88
2019-04-25T18:52:55.913Z,0.78
2019-04-25T18:56:06.263Z,1.20
2019-04-25T18:59:41.574Z,0.95
2019-04-25T19:03:22.468Z,0.70
2019-04-25T19:06:21.031Z,0.80
2019-04-25T19:09:24.767Z,0.70
2019-04-25T19:12:28.298Z,0.70
2019-04-25T19:15:31.479Z,1.00
2019-04-25T19:18:35.028Z,0.88
2019-04-25T19:21:39.189Z,1.00
2019-04-25T19:24:44.959Z,0.70
2019-04-25T19:27:48.970Z,0.70
2019-04-25T19:30:52.517Z,0.80
2019-04-25T19:33:56.743Z,1.00
2019-04-25T19:37:00.200Z,0.93
2019-04-25T19:40:23.427Z,0.95
2019-04-25T19:43:48.688Z,0.80
2019-04-25T19:46:52.275Z,0.80
2019-04-25T19:49:57.329Z,0.90
2019-04-25T19:53:00.833Z,0.90
2019-04-25T19:56:04.476Z,0.80
2019-04-25T19:59:07.965Z,0.60
2019-04-25T20:02:20.804Z,0.90
2019-04-25T20:05:37.000Z,0.82
2019-04-25T20:08:50.683Z,1.00
2019-04-25T20:11:55.079Z,1.10
2019-04-25T20:14:58.896Z,0.93
2019-04-25T20:18:02.520Z,1.65
2019-04-25T20:21:06.283Z,1.35
2019-04-25T20:24:10.115Z,0.90
2019-04-25T20:27:13.899Z,1.10
2019-04-25T20:30:17.937Z,1.20
2019-04-25T20:33:21.651Z,1.10
2019-04-25T20:36:25.118Z,1.20
2019-04-25T20:39:28.714Z,1.12
2019-04-25T20:42:32.616Z,1.30
2019-04-25T20:45:36.480Z,1.15
2019-04-25T20:48:39.995Z,1.00
2019-04-25T20:51:44.341Z,1.12
2019-04-25T20:54:48.829Z,1.00
2019-04-25T20:57:53.250Z,1.10
2019-04-25T21:00:59.633Z,1.10
2019-04-25T21:04:12.654Z,1.35
2019-04-25T21:07:08.543Z,1.27
2019-04-25T21:10:12.053Z,1.25
2019-04-25T21:13:20.393Z,1.10
2019-04-25T21:16:56.414Z,1.50
2019-04-25T21:20:00.239Z,1.00
2019-04-25T21:23:03.787Z,1.00
2019-04-25T21:26:07.271Z,1.02
2019-04-25T21:29:10.780Z,0.75
2019-04-25T21:32:16.059Z,1.12
2019-04-25T21:35:19.911Z,0.90
2019-04-25T21:38:23.399Z,1.10
2019-04-25T21:41:55.626Z,1.10
2019-04-25T21:45:00.384Z,0.95
2019-04-25T21:48:04.048Z,1.07
2019-04-25T21:51:26.616Z,1.37
2019-04-25T21:54:30.112Z,1.30
2019-04-25T21:57:33.680Z,1.45
2019-04-25T22:10:12.645Z,1.50
2019-04-25T22:22:52.702Z,1.30
2019-04-25T22:25:56.313Z,1.40
2019-04-25T22:29:01.209Z,2.15
2019-04-25T22:32:36.108Z,1.45
2019-04-25T22:35:59.209Z,1.35
2019-04-25T22:39:09.520Z,1.47
2019-04-25T22:42:14.219Z,1.42
2019-04-25T22:45:17.760Z,1.10
2019-04-25T22:48:25.914Z,1.42
2019-04-25T22:51:29.539Z,1.62
2019-04-25T22:54:33.439Z,1.50
2019-04-25T22:57:36.847Z,2.00
2019-04-25T23:00:40.350Z,1.75
2019-04-25T23:03:47.707Z,1.52
2019-04-25T23:06:51.456Z,1.52
2019-04-25T23:09:54.990Z,1.70
2019-04-25T23:12:58.663Z,1.62
2019-04-25T23:16:02.489Z,1.60
2019-04-25T23:19:10.365Z,1.50
2019-04-25T23:22:14.648Z,1.42
2019-04-25T23:25:21.064Z,1.87
2019-04-25T23:28:27.220Z,1.57
2019-04-25T23:31:31.776Z,1.82
2019-04-25T23:34:35.564Z,2.00
2019-04-25T23:37:39.007Z,1.92
2019-04-25T23:40:42.504Z,2.00
2019-04-25T23:43:46.071Z,2.10
2019-04-25T23:46:49.612Z,1.70
2019-04-25T23:49:52.999Z,2.37
2019-04-25T23:52:56.616Z,1.60
2019-04-25T23:56:00.144Z,2.50
2019-04-25T23:59:03.607Z,1.92
